aviador You're here:

KTDR Decoded Metar

in
Report Time2018-01-16 18:56:00
UTC Time2018-01-16 19:33:17
Flight Rules vfr VFR
Wind250° at 04 kt
W.Rank250° ranks 11
Current wind is below 250° avg. (6.7)
Visibility9999 m
Phenomena:N/A
Clouds:N/A
Expected CloudBase > 6,000 ft AGL from Temp-Dew spread
CeilingNone
Temp16°C
Dew Point01°C (36% RH)
AAT12.7°C
QNH1028 hPa
Raw Report
KTDR 161856Z AUTO 25004KT 10SM CLR 16/01 A3035 RMK AO2 SLP281
T01590014 $=

Extra information for KTDR:More info

Social comments